sensor_id;sensor_type;location;lat;lon;timestamp;temperature;humidity
15036;DHT22;7615;48.574;13.474;2023-04-06T00:01:18;3.80;99.90
15036;DHT22;7615;48.574;13.474;2023-04-06T00:03:47;3.90;99.90
15036;DHT22;7615;48.574;13.474;2023-04-06T00:06:15;3.90;99.90
15036;DHT22;7615;48.574;13.474;2023-04-06T00:08:42;4.00;99.90
15036;DHT22;7615;48.574;13.474;2023-04-06T00:11:10;4.00;99.90
15036;DHT22;7615;48.574;13.474;2023-04-06T00:13:37;4.00;99.90
15036;DHT22;7615;48.574;13.474;2023-04-06T00:16:05;4.00;99.90
15036;DHT22;7615;48.574;13.474;2023-04-06T00:18:32;4.00;99.90
15036;DHT22;7615;48.574;13.474;2023-04-06T00:21:02;4.00;99.90
15036;DHT22;7615;48.574;13.474;2023-04-06T00:23:30;3.90;99.90
15036;DHT22;7615;48.574;13.474;2023-04-06T00:25:57;3.80;99.90
15036;DHT22;7615;48.574;13.474;2023-04-06T00:28:24;3.80;99.90
15036;DHT22;7615;48.574;13.474;2023-04-06T00:30:52;3.70;99.90
15036;DHT22;7615;48.574;13.474;2023-04-06T00:33:20;3.60;99.90
15036;DHT22;7615;48.574;13.474;2023-04-06T00:35:48;3.50;99.90
15036;DHT22;7615;48.574;13.474;2023-04-06T00:38:16;3.60;99.90
15036;DHT22;7615;48.574;13.474;2023-04-06T00:40:44;3.30;99.90
15036;DHT22;7615;48.574;13.474;2023-04-06T00:43:11;3.30;99.90
15036;DHT22;7615;48.574;13.474;2023-04-06T00:45:40;3.40;99.90
15036;DHT22;7615;48.574;13.474;2023-04-06T00:48:08;3.10;99.90
15036;DHT22;7615;48.574;13.474;2023-04-06T00:50:35;3.10;99.90
15036;DHT22;7615;48.574;13.474;2023-04-06T00:53:02;3.00;99.90
15036;DHT22;7615;48.574;13.474;2023-04-06T00:55:31;2.90;99.90
15036;DHT22;7615;48.574;13.474;2023-04-06T00:57:59;2.90;99.90
15036;DHT22;7615;48.574;13.474;2023-04-06T01:00:26;3.00;99.90
15036;DHT22;7615;48.574;13.474;2023-04-06T01:02:54;3.00;99.90
15036;DHT22;7615;48.574;13.474;2023-04-06T01:05:21;3.10;99.90
15036;DHT22;7615;48.574;13.474;2023-04-06T01:07:48;3.00;99.90
15036;DHT22;7615;48.574;13.474;2023-04-06T01:10:23;2.80;99.90
15036;DHT22;7615;48.574;13.474;2023-04-06T01:12:52;2.50;99.90
15036;DHT22;7615;48.574;13.474;2023-04-06T01:15:19;2.40;99.90
15036;DHT22;7615;48.574;13.474;2023-04-06T01:17:47;2.30;99.90
15036;DHT22;7615;48.574;13.474;2023-04-06T01:20:15;2.30;99.90
15036;DHT22;7615;48.574;13.474;2023-04-06T01:22:44;2.20;99.90
15036;DHT22;7615;48.574;13.474;2023-04-06T01:25:11;2.20;99.90
15036;DHT22;7615;48.574;13.474;2023-04-06T01:27:38;2.30;99.90
15036;DHT22;7615;48.574;13.474;2023-04-06T01:30:06;2.30;99.90
15036;DHT22;7615;48.574;13.474;2023-04-06T01:32:34;2.30;99.90
15036;DHT22;7615;48.574;13.474;2023-04-06T01:35:01;2.10;99.90
15036;DHT22;7615;48.574;13.474;2023-04-06T01:37:31;2.10;99.90
15036;DHT22;7615;48.574;13.474;2023-04-06T01:40:00;2.00;99.90
15036;DHT22;7615;48.574;13.474;2023-04-06T01:42:27;2.10;99.90
15036;DHT22;7615;48.574;13.474;2023-04-06T01:44:55;2.10;99.90
15036;DHT22;7615;48.574;13.474;2023-04-06T01:47:22;2.20;99.90
15036;DHT22;7615;48.574;13.474;2023-04-06T01:49:50;2.20;99.90
15036;DHT22;7615;48.574;13.474;2023-04-06T01:52:18;2.20;99.90
15036;DHT22;7615;48.574;13.474;2023-04-06T01:54:45;2.10;99.90
15036;DHT22;7615;48.574;13.474;2023-04-06T01:57:13;2.10;99.90
15036;DHT22;7615;48.574;13.474;2023-04-06T01:59:40;2.30;99.90
15036;DHT22;7615;48.574;13.474;2023-04-06T02:02:08;2.30;99.90
15036;DHT22;7615;48.574;13.474;2023-04-06T02:04:35;2.40;99.90
15036;DHT22;7615;48.574;13.474;2023-04-06T02:07:02;2.50;99.90
15036;DHT22;7615;48.574;13.474;2023-04-06T02:09:29;2.50;99.90
15036;DHT22;7615;48.574;13.474;2023-04-06T02:11:56;2.50;99.90
15036;DHT22;7615;48.574;13.474;2023-04-06T02:14:26;2.50;99.90
15036;DHT22;7615;48.574;13.474;2023-04-06T02:16:53;2.50;99.90
15036;DHT22;7615;48.574;13.474;2023-04-06T02:19:20;2.60;99.90
15036;DHT22;7615;48.574;13.474;2023-04-06T02:21:48;2.60;99.90
15036;DHT22;7615;48.574;13.474;2023-04-06T02:24:15;2.50;99.90
15036;DHT22;7615;48.574;13.474;2023-04-06T02:26:42;2.40;99.90
15036;DHT22;7615;48.574;13.474;2023-04-06T02:29:09;2.20;99.90
15036;DHT22;7615;48.574;13.474;2023-04-06T02:31:38;2.00;99.90
15036;DHT22;7615;48.574;13.474;2023-04-06T02:34:05;1.90;99.90
15036;DHT22;7615;48.574;13.474;2023-04-06T02:36:36;1.80;99.90
15036;DHT22;7615;48.574;13.474;2023-04-06T02:39:03;1.80;99.90
15036;DHT22;7615;48.574;13.474;2023-04-06T02:41:30;1.70;99.90
15036;DHT22;7615;48.574;13.474;2023-04-06T02:43:57;1.50;99.90
15036;DHT22;7615;48.574;13.474;2023-04-06T02:46:25;1.50;99.90
15036;DHT22;7615;48.574;13.474;2023-04-06T02:48:53;1.40;99.90
15036;DHT22;7615;48.574;13.474;2023-04-06T02:51:21;1.20;99.90
15036;DHT22;7615;48.574;13.474;2023-04-06T02:53:49;1.00;99.90
15036;DHT22;7615;48.574;13.474;2023-04-06T02:56:16;1.10;99.90
15036;DHT22;7615;48.574;13.474;2023-04-06T02:58:43;1.20;99.90
15036;DHT22;7615;48.574;13.474;2023-04-06T03:01:11;1.20;99.90
15036;DHT22;7615;48.574;13.474;2023-04-06T03:03:38;1.20;99.90
15036;DHT22;7615;48.574;13.474;2023-04-06T03:06:06;1.20;99.90
15036;DHT22;7615;48.574;13.474;2023-04-06T03:08:34;1.10;99.90
15036;DHT22;7615;48.574;13.474;2023-04-06T03:11:01;1.10;99.90
15036;DHT22;7615;48.574;13.474;2023-04-06T03:13:30;1.20;99.90
15036;DHT22;7615;48.574;13.474;2023-04-06T03:15:57;1.40;99.90
15036;DHT22;7615;48.574;13.474;2023-04-06T03:18:25;1.60;99.90
15036;DHT22;7615;48.574;13.474;2023-04-06T03:20:53;1.70;99.90
15036;DHT22;7615;48.574;13.474;2023-04-06T03:23:22;1.70;99.90
15036;DHT22;7615;48.574;13.474;2023-04-06T03:25:49;1.60;99.90
15036;DHT22;7615;48.574;13.474;2023-04-06T03:28:16;1.40;99.90
15036;DHT22;7615;48.574;13.474;2023-04-06T03:30:44;1.20;99.90
15036;DHT22;7615;48.574;13.474;2023-04-06T03:33:11;1.20;99.90
15036;DHT22;7615;48.574;13.474;2023-04-06T03:35:38;1.40;99.90
15036;DHT22;7615;48.574;13.474;2023-04-06T03:38:06;1.50;99.90
15036;DHT22;7615;48.574;13.474;2023-04-06T03:40:34;1.50;99.90
15036;DHT22;7615;48.574;13.474;2023-04-06T03:43:01;1.50;99.90
15036;DHT22;7615;48.574;13.474;2023-04-06T03:45:29;1.20;99.90
15036;DHT22;7615;48.574;13.474;2023-04-06T03:47:56;1.10;99.90
15036;DHT22;7615;48.574;13.474;2023-04-06T03:50:23;0.80;99.90
15036;DHT22;7615;48.574;13.474;2023-04-06T03:52:50;0.80;99.90
15036;DHT22;7615;48.574;13.474;2023-04-06T03:55:17;0.80;99.90
15036;DHT22;7615;48.574;13.474;2023-04-06T03:57:46;0.70;99.90
15036;DHT22;7615;48.574;13.474;2023-04-06T04:00:13;0.80;99.90
15036;DHT22;7615;48.574;13.474;2023-04-06T04:02:41;0.90;99.90
15036;DHT22;7615;48.574;13.474;2023-04-06T04:05:09;0.90;99.90
15036;DHT22;7615;48.574;13.474;2023-04-06T04:07:36;0.80;99.90
15036;DHT22;7615;48.574;13.474;2023-04-06T04:10:03;0.80;99.90
15036;DHT22;7615;48.574;13.474;2023-04-06T04:12:31;0.90;99.90
15036;DHT22;7615;48.574;13.474;2023-04-06T04:14:59;0.90;99.90
15036;DHT22;7615;48.574;13.474;2023-04-06T04:17:29;1.00;99.90
15036;DHT22;7615;48.574;13.474;2023-04-06T04:19:56;0.90;99.90
15036;DHT22;7615;48.574;13.474;2023-04-06T04:22:24;0.80;99.90
15036;DHT22;7615;48.574;13.474;2023-04-06T04:24:53;0.80;99.90
15036;DHT22;7615;48.574;13.474;2023-04-06T07:02:40;3.20;99.90
15036;DHT22;7615;48.574;13.474;2023-04-06T07:05:08;2.90;99.90
15036;DHT22;7615;48.574;13.474;2023-04-06T07:07:38;2.90;99.90
15036;DHT22;7615;48.574;13.474;2023-04-06T07:10:06;3.00;99.90
15036;DHT22;7615;48.574;13.474;2023-04-06T07:12:33;3.00;99.90
15036;DHT22;7615;48.574;13.474;2023-04-06T07:15:01;3.20;99.90
15036;DHT22;7615;48.574;13.474;2023-04-06T07:22:27;3.90;99.90
15036;DHT22;7615;48.574;13.474;2023-04-06T07:24:56;4.00;99.90
15036;DHT22;7615;48.574;13.474;2023-04-06T07:27:27;4.20;99.90
15036;DHT22;7615;48.574;13.474;2023-04-06T07:29:55;4.20;99.90
15036;DHT22;7615;48.574;13.474;2023-04-06T07:32:22;4.30;99.90
15036;DHT22;7615;48.574;13.474;2023-04-06T07:34:50;4.40;99.90
15036;DHT22;7615;48.574;13.474;2023-04-06T07:37:18;4.50;99.90
15036;DHT22;7615;48.574;13.474;2023-04-06T07:39:47;4.70;99.90
15036;DHT22;7615;48.574;13.474;2023-04-06T07:42:16;5.00;99.90
15036;DHT22;7615;48.574;13.474;2023-04-06T07:44:43;5.00;99.90
15036;DHT22;7615;48.574;13.474;2023-04-06T07:47:10;5.10;99.90
15036;DHT22;7615;48.574;13.474;2023-04-06T07:49:38;5.20;99.90
15036;DHT22;7615;48.574;13.474;2023-04-06T07:52:06;5.10;99.90
15036;DHT22;7615;48.574;13.474;2023-04-06T07:54:33;5.20;99.90
15036;DHT22;7615;48.574;13.474;2023-04-06T07:57:00;5.20;99.90
15036;DHT22;7615;48.574;13.474;2023-04-06T07:59:59;5.20;99.90
15036;DHT22;7615;48.574;13.474;2023-04-06T08:09:31;5.40;99.90
15036;DHT22;7615;48.574;13.474;2023-04-06T08:12:23;5.40;99.90
15036;DHT22;7615;48.574;13.474;2023-04-06T08:18:42;5.90;99.90
15036;DHT22;7615;48.574;13.474;2023-04-06T08:21:40;4.70;99.90
15036;DHT22;7615;48.574;13.474;2023-04-06T08:24:24;5.70;99.90
15036;DHT22;7615;48.574;13.474;2023-04-06T08:26:54;5.90;99.90
15036;DHT22;7615;48.574;13.474;2023-04-06T08:29:25;5.90;99.90
15036;DHT22;7615;48.574;13.474;2023-04-06T08:35:30;5.90;99.90
15036;DHT22;7615;48.574;13.474;2023-04-06T08:38:05;6.20;99.90
15036;DHT22;7615;48.574;13.474;2023-04-06T08:40:49;6.30;99.90
15036;DHT22;7615;48.574;13.474;2023-04-06T08:43:52;6.40;99.90
15036;DHT22;7615;48.574;13.474;2023-04-06T08:46:26;6.20;99.90
15036;DHT22;7615;48.574;13.474;2023-04-06T08:48:56;6.80;99.90
15036;DHT22;7615;48.574;13.474;2023-04-06T08:51:29;6.90;99.90
15036;DHT22;7615;48.574;13.474;2023-04-06T08:53:58;7.10;99.90
15036;DHT22;7615;48.574;13.474;2023-04-06T08:56:27;7.20;99.90
15036;DHT22;7615;48.574;13.474;2023-04-06T08:58:55;7.40;99.90
15036;DHT22;7615;48.574;13.474;2023-04-06T09:01:26;5.90;99.90
15036;DHT22;7615;48.574;13.474;2023-04-06T09:03:56;7.50;99.90
15036;DHT22;7615;48.574;13.474;2023-04-06T09:06:27;7.40;99.90
15036;DHT22;7615;48.574;13.474;2023-04-06T09:08:56;7.30;99.90
15036;DHT22;7615;48.574;13.474;2023-04-06T09:11:24;7.10;99.90
15036;DHT22;7615;48.574;13.474;2023-04-06T09:13:54;7.00;99.90
15036;DHT22;7615;48.574;13.474;2023-04-06T09:16:23;7.00;99.90
15036;DHT22;7615;48.574;13.474;2023-04-06T09:18:51;7.00;99.90
15036;DHT22;7615;48.574;13.474;2023-04-06T09:21:19;6.90;99.90
15036;DHT22;7615;48.574;13.474;2023-04-06T09:23:58;7.00;99.90
15036;DHT22;7615;48.574;13.474;2023-04-06T09:26:29;7.20;99.90
15036;DHT22;7615;48.574;13.474;2023-04-06T09:28:59;7.40;99.90
15036;DHT22;7615;48.574;13.474;2023-04-06T09:31:28;7.70;99.60
15036;DHT22;7615;48.574;13.474;2023-04-06T09:33:56;7.90;99.70
15036;DHT22;7615;48.574;13.474;2023-04-06T09:36:30;7.80;99.90
15036;DHT22;7615;48.574;13.474;2023-04-06T09:39:01;7.90;99.40
15036;DHT22;7615;48.574;13.474;2023-04-06T09:44:04;8.00;99.90
15036;DHT22;7615;48.574;13.474;2023-04-06T09:46:33;8.70;98.60
15036;DHT22;7615;48.574;13.474;2023-04-06T09:49:02;9.00;97.80
15036;DHT22;7615;48.574;13.474;2023-04-06T09:51:37;9.20;98.60
15036;DHT22;7615;48.574;13.474;2023-04-06T09:54:08;9.30;96.50
15036;DHT22;7615;48.574;13.474;2023-04-06T09:56:55;9.40;98.10
15036;DHT22;7615;48.574;13.474;2023-04-06T09:59:29;9.20;94.90
15036;DHT22;7615;48.574;13.474;2023-04-06T10:01:59;8.80;95.60
15036;DHT22;7615;48.574;13.474;2023-04-06T10:04:35;8.90;95.70
15036;DHT22;7615;48.574;13.474;2023-04-06T10:07:05;9.10;95.70
15036;DHT22;7615;48.574;13.474;2023-04-06T10:09:38;9.10;95.30
15036;DHT22;7615;48.574;13.474;2023-04-06T10:12:07;9.00;95.10
15036;DHT22;7615;48.574;13.474;2023-04-06T10:14:36;9.10;94.80
15036;DHT22;7615;48.574;13.474;2023-04-06T10:17:23;9.20;95.00
15036;DHT22;7615;48.574;13.474;2023-04-06T10:20:01;9.10;93.50
15036;DHT22;7615;48.574;13.474;2023-04-06T10:22:40;9.00;93.80
15036;DHT22;7615;48.574;13.474;2023-04-06T10:25:27;9.00;94.70
15036;DHT22;7615;48.574;13.474;2023-04-06T10:28:01;9.20;94.90
15036;DHT22;7615;48.574;13.474;2023-04-06T10:30:29;9.60;94.30
15036;DHT22;7615;48.574;13.474;2023-04-06T10:35:37;9.60;96.20
15036;DHT22;7615;48.574;13.474;2023-04-06T10:38:05;9.30;96.00
15036;DHT22;7615;48.574;13.474;2023-04-06T10:40:37;9.10;95.90
15036;DHT22;7615;48.574;13.474;2023-04-06T10:43:09;9.10;96.60
15036;DHT22;7615;48.574;13.474;2023-04-06T10:48:20;9.60;93.50
15036;DHT22;7615;48.574;13.474;2023-04-06T10:50:49;9.80;94.00
15036;DHT22;7615;48.574;13.474;2023-04-06T10:53:21;9.90;93.80
15036;DHT22;7615;48.574;13.474;2023-04-06T10:55:51;9.80;94.90
15036;DHT22;7615;48.574;13.474;2023-04-06T10:58:19;9.60;94.30
15036;DHT22;7615;48.574;13.474;2023-04-06T11:00:47;9.60;94.30
15036;DHT22;7615;48.574;13.474;2023-04-06T11:09:03;10.20;93.70
15036;DHT22;7615;48.574;13.474;2023-04-06T11:11:33;9.90;93.50
15036;DHT22;7615;48.574;13.474;2023-04-06T11:14:05;9.80;93.60
15036;DHT22;7615;48.574;13.474;2023-04-06T11:16:34;9.80;94.00
15036;DHT22;7615;48.574;13.474;2023-04-06T11:19:03;9.50;93.90
15036;DHT22;7615;48.574;13.474;2023-04-06T11:21:33;9.40;93.20
15036;DHT22;7615;48.574;13.474;2023-04-06T11:24:09;9.20;92.40
15036;DHT22;7615;48.574;13.474;2023-04-06T11:26:39;9.40;93.80
15036;DHT22;7615;48.574;13.474;2023-04-06T11:29:15;9.70;94.20
15036;DHT22;7615;48.574;13.474;2023-04-06T11:31:46;9.90;92.80
15036;DHT22;7615;48.574;13.474;2023-04-06T11:34:21;10.00;93.40
15036;DHT22;7615;48.574;13.474;2023-04-06T11:36:54;10.00;93.90
15036;DHT22;7615;48.574;13.474;2023-04-06T11:39:24;10.30;94.90
15036;DHT22;7615;48.574;13.474;2023-04-06T11:41:55;10.10;93.90
15036;DHT22;7615;48.574;13.474;2023-04-06T11:44:33;9.10;93.50
15036;DHT22;7615;48.574;13.474;2023-04-06T11:47:02;10.20;94.80
15036;DHT22;7615;48.574;13.474;2023-04-06T11:49:31;10.70;93.80
15036;DHT22;7615;48.574;13.474;2023-04-06T11:52:00;10.10;93.90
15036;DHT22;7615;48.574;13.474;2023-04-06T11:54:32;10.40;94.90
15036;DHT22;7615;48.574;13.474;2023-04-06T11:57:17;9.80;93.20
15036;DHT22;7615;48.574;13.474;2023-04-06T11:59:45;9.30;92.60
15036;DHT22;7615;48.574;13.474;2023-04-06T12:02:14;9.30;92.70
15036;DHT22;7615;48.574;13.474;2023-04-06T12:04:44;9.30;94.10
15036;DHT22;7615;48.574;13.474;2023-04-06T12:07:13;10.50;93.70
15036;DHT22;7615;48.574;13.474;2023-04-06T12:09:42;10.10;94.20
15036;DHT22;7615;48.574;13.474;2023-04-06T12:12:11;10.40;92.50
15036;DHT22;7615;48.574;13.474;2023-04-06T12:14:39;9.80;91.90
15036;DHT22;7615;48.574;13.474;2023-04-06T12:17:06;9.50;92.50
15036;DHT22;7615;48.574;13.474;2023-04-06T12:19:33;9.60;92.00
15036;DHT22;7615;48.574;13.474;2023-04-06T12:22:02;9.80;91.10
15036;DHT22;7615;48.574;13.474;2023-04-06T12:24:43;10.00;90.80
15036;DHT22;7615;48.574;13.474;2023-04-06T12:27:18;10.10;92.60
15036;DHT22;7615;48.574;13.474;2023-04-06T12:29:46;10.10;91.50
15036;DHT22;7615;48.574;13.474;2023-04-06T12:32:14;10.00;88.90
15036;DHT22;7615;48.574;13.474;2023-04-06T12:34:43;10.00;91.40
15036;DHT22;7615;48.574;13.474;2023-04-06T12:37:11;9.80;90.90
15036;DHT22;7615;48.574;13.474;2023-04-06T12:39:53;9.70;90.00
15036;DHT22;7615;48.574;13.474;2023-04-06T12:42:43;9.90;90.00
15036;DHT22;7615;48.574;13.474;2023-04-06T12:45:24;10.10;90.30
15036;DHT22;7615;48.574;13.474;2023-04-06T12:47:51;10.10;89.70
15036;DHT22;7615;48.574;13.474;2023-04-06T12:50:20;10.40;89.30
15036;DHT22;7615;48.574;13.474;2023-04-06T13:00:17;10.60;88.30
15036;DHT22;7615;48.574;13.474;2023-04-06T13:02:47;10.40;87.80
15036;DHT22;7615;48.574;13.474;2023-04-06T13:05:15;10.20;89.20
15036;DHT22;7615;48.574;13.474;2023-04-06T13:07:45;10.00;87.90
15036;DHT22;7615;48.574;13.474;2023-04-06T13:10:13;10.20;89.60
15036;DHT22;7615;48.574;13.474;2023-04-06T13:15:16;11.30;87.40
15036;DHT22;7615;48.574;13.474;2023-04-06T13:17:43;11.30;88.90
15036;DHT22;7615;48.574;13.474;2023-04-06T13:20:12;11.20;89.80
15036;DHT22;7615;48.574;13.474;2023-04-06T13:22:41;11.20;88.00
15036;DHT22;7615;48.574;13.474;2023-04-06T13:25:09;11.00;86.40
15036;DHT22;7615;48.574;13.474;2023-04-06T13:27:37;10.80;88.60
15036;DHT22;7615;48.574;13.474;2023-04-06T13:30:06;10.80;87.40
15036;DHT22;7615;48.574;13.474;2023-04-06T13:32:36;11.00;87.10
15036;DHT22;7615;48.574;13.474;2023-04-06T13:38:26;11.20;87.00
15036;DHT22;7615;48.574;13.474;2023-04-06T13:40:53;11.30;87.00
15036;DHT22;7615;48.574;13.474;2023-04-06T13:43:20;11.10;86.70
15036;DHT22;7615;48.574;13.474;2023-04-06T13:45:54;11.30;85.50
15036;DHT22;7615;48.574;13.474;2023-04-06T13:48:26;11.50;84.00
15036;DHT22;7615;48.574;13.474;2023-04-06T13:50:53;11.40;87.10
15036;DHT22;7615;48.574;13.474;2023-04-06T13:53:20;11.70;86.00
15036;DHT22;7615;48.574;13.474;2023-04-06T13:55:54;11.50;85.80
15036;DHT22;7615;48.574;13.474;2023-04-06T14:00:49;11.80;83.60
15036;DHT22;7615;48.574;13.474;2023-04-06T14:03:17;11.60;85.50
15036;DHT22;7615;48.574;13.474;2023-04-06T14:05:49;11.50;84.50
15036;DHT22;7615;48.574;13.474;2023-04-06T14:08:17;11.40;85.20
15036;DHT22;7615;48.574;13.474;2023-04-06T14:10:44;11.30;84.30
15036;DHT22;7615;48.574;13.474;2023-04-06T14:13:12;11.30;85.10
15036;DHT22;7615;48.574;13.474;2023-04-06T14:15:40;11.30;83.60
15036;DHT22;7615;48.574;13.474;2023-04-06T14:18:08;11.10;85.10
15036;DHT22;7615;48.574;13.474;2023-04-06T14:20:35;11.10;83.50
15036;DHT22;7615;48.574;13.474;2023-04-06T14:23:04;11.10;84.50
15036;DHT22;7615;48.574;13.474;2023-04-06T14:25:32;11.10;84.20
15036;DHT22;7615;48.574;13.474;2023-04-06T14:28:00;11.30;85.60
15036;DHT22;7615;48.574;13.474;2023-04-06T14:30:29;11.50;83.60
15036;DHT22;7615;48.574;13.474;2023-04-06T14:35:26;11.60;82.90
15036;DHT22;7615;48.574;13.474;2023-04-06T14:37:57;11.50;83.80
15036;DHT22;7615;48.574;13.474;2023-04-06T14:40:27;11.30;83.70
15036;DHT22;7615;48.574;13.474;2023-04-06T14:42:55;11.30;83.40
15036;DHT22;7615;48.574;13.474;2023-04-06T14:45:23;11.20;83.50
15036;DHT22;7615;48.574;13.474;2023-04-06T14:47:50;10.80;83.80
15036;DHT22;7615;48.574;13.474;2023-04-06T14:50:18;10.70;83.90
15036;DHT22;7615;48.574;13.474;2023-04-06T14:52:46;10.60;82.30
15036;DHT22;7615;48.574;13.474;2023-04-06T14:55:13;10.50;83.80
15036;DHT22;7615;48.574;13.474;2023-04-06T14:57:42;10.50;83.50
15036;DHT22;7615;48.574;13.474;2023-04-06T15:00:12;10.30;84.40
15036;DHT22;7615;48.574;13.474;2023-04-06T15:02:39;10.50;84.40
15036;DHT22;7615;48.574;13.474;2023-04-06T15:05:13;10.50;84.70
15036;DHT22;7615;48.574;13.474;2023-04-06T15:07:41;10.60;85.20
15036;DHT22;7615;48.574;13.474;2023-04-06T15:10:09;10.50;83.60
15036;DHT22;7615;48.574;13.474;2023-04-06T15:12:37;10.40;84.10
15036;DHT22;7615;48.574;13.474;2023-04-06T15:15:10;10.50;85.40
15036;DHT22;7615;48.574;13.474;2023-04-06T15:17:38;10.60;85.40
15036;DHT22;7615;48.574;13.474;2023-04-06T15:20:06;10.60;83.30
15036;DHT22;7615;48.574;13.474;2023-04-06T15:22:33;10.50;84.00
15036;DHT22;7615;48.574;13.474;2023-04-06T15:25:06;10.40;84.70
15036;DHT22;7615;48.574;13.474;2023-04-06T15:27:33;10.40;84.20
15036;DHT22;7615;48.574;13.474;2023-04-06T15:30:01;10.40;84.20
15036;DHT22;7615;48.574;13.474;2023-04-06T15:32:32;10.40;83.80
15036;DHT22;7615;48.574;13.474;2023-04-06T15:35:00;10.30;84.20
15036;DHT22;7615;48.574;13.474;2023-04-06T15:37:35;10.30;85.10
15036;DHT22;7615;48.574;13.474;2023-04-06T15:40:04;10.30;84.60
15036;DHT22;7615;48.574;13.474;2023-04-06T15:42:31;10.20;84.30
15036;DHT22;7615;48.574;13.474;2023-04-06T15:44:58;10.20;84.70
15036;DHT22;7615;48.574;13.474;2023-04-06T15:47:26;10.30;83.60
15036;DHT22;7615;48.574;13.474;2023-04-06T15:49:55;10.40;83.50
15036;DHT22;7615;48.574;13.474;2023-04-06T15:52:22;10.20;83.40
15036;DHT22;7615;48.574;13.474;2023-04-06T15:54:49;10.20;85.00
15036;DHT22;7615;48.574;13.474;2023-04-06T15:57:17;10.30;83.90
15036;DHT22;7615;48.574;13.474;2023-04-06T15:59:48;10.30;84.60
15036;DHT22;7615;48.574;13.474;2023-04-06T16:02:17;10.30;84.30
15036;DHT22;7615;48.574;13.474;2023-04-06T16:04:45;10.30;82.00
15036;DHT22;7615;48.574;13.474;2023-04-06T16:07:14;10.30;81.40
15036;DHT22;7615;48.574;13.474;2023-04-06T16:09:42;10.30;80.50
15036;DHT22;7615;48.574;13.474;2023-04-06T16:12:11;10.40;80.50
15036;DHT22;7615;48.574;13.474;2023-04-06T16:14:39;10.30;78.50
15036;DHT22;7615;48.574;13.474;2023-04-06T16:17:15;10.20;78.80
15036;DHT22;7615;48.574;13.474;2023-04-06T16:19:42;10.20;80.20
15036;DHT22;7615;48.574;13.474;2023-04-06T16:22:09;10.20;81.80
15036;DHT22;7615;48.574;13.474;2023-04-06T16:24:38;10.20;81.30
15036;DHT22;7615;48.574;13.474;2023-04-06T16:27:06;10.20;83.10
15036;DHT22;7615;48.574;13.474;2023-04-06T16:29:34;10.20;83.20
15036;DHT22;7615;48.574;13.474;2023-04-06T16:32:02;10.10;82.90
15036;DHT22;7615;48.574;13.474;2023-04-06T16:34:30;10.10;83.10
15036;DHT22;7615;48.574;13.474;2023-04-06T16:36:58;10.10;85.10
15036;DHT22;7615;48.574;13.474;2023-04-06T16:39:26;10.00;84.70
15036;DHT22;7615;48.574;13.474;2023-04-06T16:41:54;10.00;86.50
15036;DHT22;7615;48.574;13.474;2023-04-06T16:44:23;10.00;86.50
15036;DHT22;7615;48.574;13.474;2023-04-06T16:46:50;10.00;87.40
15036;DHT22;7615;48.574;13.474;2023-04-06T16:49:18;9.90;88.20
15036;DHT22;7615;48.574;13.474;2023-04-06T16:51:47;9.90;87.20
15036;DHT22;7615;48.574;13.474;2023-04-06T16:54:15;9.90;88.70
15036;DHT22;7615;48.574;13.474;2023-04-06T16:56:42;9.90;87.90
15036;DHT22;7615;48.574;13.474;2023-04-06T16:59:11;9.90;87.90
15036;DHT22;7615;48.574;13.474;2023-04-06T17:01:39;9.80;88.00
15036;DHT22;7615;48.574;13.474;2023-04-06T17:04:10;9.90;88.50
15036;DHT22;7615;48.574;13.474;2023-04-06T17:06:37;9.80;89.60
15036;DHT22;7615;48.574;13.474;2023-04-06T17:09:05;9.80;90.00
15036;DHT22;7615;48.574;13.474;2023-04-06T17:11:32;9.80;89.40
15036;DHT22;7615;48.574;13.474;2023-04-06T17:14:01;9.80;89.70
15036;DHT22;7615;48.574;13.474;2023-04-06T17:16:31;9.70;90.40
15036;DHT22;7615;48.574;13.474;2023-04-06T17:18:59;9.70;90.40
15036;DHT22;7615;48.574;13.474;2023-04-06T17:21:28;9.60;90.70
15036;DHT22;7615;48.574;13.474;2023-04-06T17:23:55;9.60;91.00
15036;DHT22;7615;48.574;13.474;2023-04-06T17:26:23;9.50;91.80
15036;DHT22;7615;48.574;13.474;2023-04-06T17:28:50;9.50;91.20
15036;DHT22;7615;48.574;13.474;2023-04-06T17:31:17;9.40;92.20
15036;DHT22;7615;48.574;13.474;2023-04-06T17:33:46;9.40;92.30
15036;DHT22;7615;48.574;13.474;2023-04-06T17:36:14;9.30;91.50
15036;DHT22;7615;48.574;13.474;2023-04-06T17:38:42;9.30;91.80
15036;DHT22;7615;48.574;13.474;2023-04-06T17:41:11;9.30;92.00
15036;DHT22;7615;48.574;13.474;2023-04-06T17:43:39;9.30;92.30
15036;DHT22;7615;48.574;13.474;2023-04-06T17:46:07;9.20;92.40
15036;DHT22;7615;48.574;13.474;2023-04-06T17:48:36;9.10;92.90
15036;DHT22;7615;48.574;13.474;2023-04-06T17:53:33;9.00;95.80
15036;DHT22;7615;48.574;13.474;2023-04-06T17:56:01;8.90;97.30
15036;DHT22;7615;48.574;13.474;2023-04-06T17:58:29;8.80;98.30
15036;DHT22;7615;48.574;13.474;2023-04-06T18:00:57;8.70;99.60
15036;DHT22;7615;48.574;13.474;2023-04-06T18:03:24;8.60;99.90
15036;DHT22;7615;48.574;13.474;2023-04-06T18:05:52;8.50;99.90
15036;DHT22;7615;48.574;13.474;2023-04-06T18:08:21;8.30;99.90
15036;DHT22;7615;48.574;13.474;2023-04-06T18:10:49;8.20;99.90
15036;DHT22;7615;48.574;13.474;2023-04-06T18:13:18;8.20;99.90
15036;DHT22;7615;48.574;13.474;2023-04-06T18:15:45;8.00;99.90
15036;DHT22;7615;48.574;13.474;2023-04-06T18:18:13;7.80;99.90
15036;DHT22;7615;48.574;13.474;2023-04-06T18:20:41;7.80;99.90
15036;DHT22;7615;48.574;13.474;2023-04-06T18:23:09;7.80;99.90
15036;DHT22;7615;48.574;13.474;2023-04-06T18:25:39;7.70;99.90
15036;DHT22;7615;48.574;13.474;2023-04-06T18:28:08;7.70;99.90
15036;DHT22;7615;48.574;13.474;2023-04-06T18:30:36;7.60;99.90
15036;DHT22;7615;48.574;13.474;2023-04-06T18:33:03;7.40;99.90
15036;DHT22;7615;48.574;13.474;2023-04-06T18:35:33;7.30;99.90
15036;DHT22;7615;48.574;13.474;2023-04-06T18:38:01;7.30;99.90
15036;DHT22;7615;48.574;13.474;2023-04-06T18:40:32;7.20;99.90
15036;DHT22;7615;48.574;13.474;2023-04-06T18:43:01;7.10;99.90
15036;DHT22;7615;48.574;13.474;2023-04-06T18:45:31;6.80;99.90
15036;DHT22;7615;48.574;13.474;2023-04-06T18:48:00;7.00;99.90
15036;DHT22;7615;48.574;13.474;2023-04-06T18:50:28;6.90;99.90
15036;DHT22;7615;48.574;13.474;2023-04-06T18:52:55;6.80;99.90
15036;DHT22;7615;48.574;13.474;2023-04-06T18:55:23;6.90;99.90
15036;DHT22;7615;48.574;13.474;2023-04-06T18:57:51;6.80;99.90
15036;DHT22;7615;48.574;13.474;2023-04-06T19:00:20;6.70;99.90
15036;DHT22;7615;48.574;13.474;2023-04-06T19:02:49;6.70;99.90
15036;DHT22;7615;48.574;13.474;2023-04-06T19:05:17;6.60;99.90
15036;DHT22;7615;48.574;13.474;2023-04-06T19:07:46;6.60;99.90
15036;DHT22;7615;48.574;13.474;2023-04-06T19:10:18;6.40;99.90
15036;DHT22;7615;48.574;13.474;2023-04-06T19:12:46;6.40;99.90
15036;DHT22;7615;48.574;13.474;2023-04-06T19:15:14;6.30;99.90
15036;DHT22;7615;48.574;13.474;2023-04-06T19:17:44;6.30;99.90
15036;DHT22;7615;48.574;13.474;2023-04-06T19:20:14;6.20;99.90
15036;DHT22;7615;48.574;13.474;2023-04-06T19:22:41;6.10;99.90
15036;DHT22;7615;48.574;13.474;2023-04-06T19:25:09;6.00;99.90